sensor_id;sensor_type;location;lat;lon;timestamp;P1;durP1;ratioP1;P2;durP2;ratioP2
3259;SDS011;68938;48.150;14.004;2023-04-03T00:01:15;7.27;;;5.10;;
3259;SDS011;68938;48.150;14.004;2023-04-03T00:03:43;5.03;;;4.67;;
3259;SDS011;68938;48.150;14.004;2023-04-03T00:06:11;5.00;;;4.70;;
3259;SDS011;68938;48.150;14.004;2023-04-03T00:08:39;4.70;;;4.40;;
3259;SDS011;68938;48.150;14.004;2023-04-03T00:11:07;5.90;;;5.40;;
3259;SDS011;68938;48.150;14.004;2023-04-03T00:13:35;5.67;;;5.17;;
3259;SDS011;68938;48.150;14.004;2023-04-03T00:16:03;4.87;;;4.57;;
3259;SDS011;68938;48.150;14.004;2023-04-03T00:18:30;5.70;;;5.30;;
3259;SDS011;68938;48.150;14.004;2023-04-03T00:20:58;5.93;;;5.47;;
3259;SDS011;68938;48.150;14.004;2023-04-03T00:23:25;4.73;;;4.43;;
3259;SDS011;68938;48.150;14.004;2023-04-03T00:25:52;4.57;;;4.27;;
3259;SDS011;68938;48.150;14.004;2023-04-03T00:28:19;5.47;;;5.10;;
3259;SDS011;68938;48.150;14.004;2023-04-03T00:30:48;4.50;;;4.20;;
3259;SDS011;68938;48.150;14.004;2023-04-03T00:33:16;6.20;;;5.80;;
3259;SDS011;68938;48.150;14.004;2023-04-03T00:35:44;5.00;;;4.70;;
3259;SDS011;68938;48.150;14.004;2023-04-03T00:38:11;6.00;;;5.50;;
3259;SDS011;68938;48.150;14.004;2023-04-03T00:40:39;5.93;;;5.57;;
3259;SDS011;68938;48.150;14.004;2023-04-03T00:43:12;6.23;;;5.80;;
3259;SDS011;68938;48.150;14.004;2023-04-03T00:45:49;5.57;;;5.07;;
3259;SDS011;68938;48.150;14.004;2023-04-03T00:49:01;5.47;;;4.80;;
3259;SDS011;68938;48.150;14.004;2023-04-03T00:51:13;5.83;;;5.33;;
3259;SDS011;68938;48.150;14.004;2023-04-03T00:53:50;6.80;;;6.23;;
3259;SDS011;68938;48.150;14.004;2023-04-03T00:56:26;5.20;;;4.67;;
3259;SDS011;68938;48.150;14.004;2023-04-03T00:58:56;5.50;;;5.00;;
3259;SDS011;68938;48.150;14.004;2023-04-03T01:01:32;5.97;;;5.67;;
3259;SDS011;68938;48.150;14.004;2023-04-03T01:03:59;5.33;;;4.93;;
3259;SDS011;68938;48.150;14.004;2023-04-03T01:06:29;6.10;;;5.60;;
3259;SDS011;68938;48.150;14.004;2023-04-03T01:09:00;5.40;;;5.00;;
3259;SDS011;68938;48.150;14.004;2023-04-03T01:11:28;5.67;;;5.00;;
3259;SDS011;68938;48.150;14.004;2023-04-03T01:13:55;5.83;;;5.40;;
3259;SDS011;68938;48.150;14.004;2023-04-03T01:16:22;5.30;;;4.97;;
3259;SDS011;68938;48.150;14.004;2023-04-03T01:18:49;5.50;;;5.10;;
3259;SDS011;68938;48.150;14.004;2023-04-03T01:26:59;5.57;;;5.27;;
3259;SDS011;68938;48.150;14.004;2023-04-03T01:29:28;6.23;;;5.73;;
3259;SDS011;68938;48.150;14.004;2023-04-03T01:31:56;5.57;;;5.07;;
3259;SDS011;68938;48.150;14.004;2023-04-03T01:34:26;4.43;;;4.23;;
3259;SDS011;68938;48.150;14.004;2023-04-03T01:36:54;4.57;;;4.30;;
3259;SDS011;68938;48.150;14.004;2023-04-03T01:39:21;5.60;;;5.20;;
3259;SDS011;68938;48.150;14.004;2023-04-03T01:41:49;4.93;;;4.63;;
3259;SDS011;68938;48.150;14.004;2023-04-03T01:44:16;5.90;;;5.13;;
3259;SDS011;68938;48.150;14.004;2023-04-03T01:46:43;5.33;;;4.93;;
3259;SDS011;68938;48.150;14.004;2023-04-03T01:49:10;6.73;;;6.20;;
3259;SDS011;68938;48.150;14.004;2023-04-03T01:51:37;6.10;;;5.80;;
3259;SDS011;68938;48.150;14.004;2023-04-03T01:54:04;6.27;;;5.70;;
3259;SDS011;68938;48.150;14.004;2023-04-03T01:56:30;6.10;;;5.60;;
3259;SDS011;68938;48.150;14.004;2023-04-03T01:58:57;5.67;;;5.23;;
3259;SDS011;68938;48.150;14.004;2023-04-03T02:01:24;5.73;;;5.23;;
3259;SDS011;68938;48.150;14.004;2023-04-03T02:03:51;5.83;;;5.40;;
3259;SDS011;68938;48.150;14.004;2023-04-03T02:06:18;5.70;;;5.30;;
3259;SDS011;68938;48.150;14.004;2023-04-03T02:08:45;5.60;;;5.20;;
3259;SDS011;68938;48.150;14.004;2023-04-03T02:11:12;4.90;;;4.60;;
3259;SDS011;68938;48.150;14.004;2023-04-03T02:13:39;5.67;;;5.30;;
3259;SDS011;68938;48.150;14.004;2023-04-03T02:16:06;5.40;;;5.10;;
3259;SDS011;68938;48.150;14.004;2023-04-03T02:18:35;5.33;;;4.83;;
3259;SDS011;68938;48.150;14.004;2023-04-03T02:21:03;5.27;;;4.87;;
3259;SDS011;68938;48.150;14.004;2023-04-03T02:23:30;5.23;;;4.73;;
3259;SDS011;68938;48.150;14.004;2023-04-03T02:26:04;5.77;;;5.47;;
3259;SDS011;68938;48.150;14.004;2023-04-03T02:28:37;5.37;;;5.00;;
3259;SDS011;68938;48.150;14.004;2023-04-03T02:31:05;4.60;;;4.30;;
3259;SDS011;68938;48.150;14.004;2023-04-03T02:33:34;4.83;;;4.50;;
3259;SDS011;68938;48.150;14.004;2023-04-03T02:36:02;5.13;;;4.73;;
3259;SDS011;68938;48.150;14.004;2023-04-03T02:38:32;4.70;;;4.50;;
3259;SDS011;68938;48.150;14.004;2023-04-03T02:41:00;5.53;;;4.97;;
3259;SDS011;68938;48.150;14.004;2023-04-03T02:43:28;4.80;;;4.40;;
3259;SDS011;68938;48.150;14.004;2023-04-03T02:45:55;4.03;;;3.83;;
3259;SDS011;68938;48.150;14.004;2023-04-03T02:48:22;6.00;;;5.60;;
3259;SDS011;68938;48.150;14.004;2023-04-03T02:50:50;4.50;;;4.20;;
3259;SDS011;68938;48.150;14.004;2023-04-03T02:53:17;3.93;;;3.73;;
3259;SDS011;68938;48.150;14.004;2023-04-03T02:55:45;4.37;;;4.07;;
3259;SDS011;68938;48.150;14.004;2023-04-03T02:58:12;5.00;;;4.60;;
3259;SDS011;68938;48.150;14.004;2023-04-03T03:00:39;4.83;;;4.53;;
3259;SDS011;68938;48.150;14.004;2023-04-03T03:03:06;4.77;;;4.47;;
3259;SDS011;68938;48.150;14.004;2023-04-03T03:05:33;5.00;;;4.60;;
3259;SDS011;68938;48.150;14.004;2023-04-03T03:08:00;4.53;;;4.23;;
3259;SDS011;68938;48.150;14.004;2023-04-03T03:10:27;4.37;;;4.17;;
3259;SDS011;68938;48.150;14.004;2023-04-03T03:12:54;4.00;;;3.80;;
3259;SDS011;68938;48.150;14.004;2023-04-03T03:15:21;4.57;;;4.17;;
3259;SDS011;68938;48.150;14.004;2023-04-03T03:17:48;4.03;;;3.73;;
3259;SDS011;68938;48.150;14.004;2023-04-03T03:20:15;3.80;;;3.60;;
3259;SDS011;68938;48.150;14.004;2023-04-03T03:22:42;4.90;;;4.53;;
3259;SDS011;68938;48.150;14.004;2023-04-03T03:25:09;4.57;;;4.30;;
3259;SDS011;68938;48.150;14.004;2023-04-03T03:27:36;4.53;;;4.27;;
3259;SDS011;68938;48.150;14.004;2023-04-03T03:30:03;4.40;;;3.87;;
3259;SDS011;68938;48.150;14.004;2023-04-03T03:32:32;4.63;;;4.30;;
3259;SDS011;68938;48.150;14.004;2023-04-03T03:34:59;4.03;;;3.83;;
3259;SDS011;68938;48.150;14.004;2023-04-03T03:37:25;4.93;;;4.40;;
3259;SDS011;68938;48.150;14.004;2023-04-03T03:39:52;5.47;;;4.97;;
3259;SDS011;68938;48.150;14.004;2023-04-03T03:42:19;5.40;;;5.10;;
3259;SDS011;68938;48.150;14.004;2023-04-03T03:44:46;5.30;;;5.00;;
3259;SDS011;68938;48.150;14.004;2023-04-03T03:47:13;4.67;;;4.37;;
3259;SDS011;68938;48.150;14.004;2023-04-03T03:49:40;5.67;;;4.93;;
3259;SDS011;68938;48.150;14.004;2023-04-03T03:52:06;5.73;;;5.23;;
3259;SDS011;68938;48.150;14.004;2023-04-03T03:54:33;5.13;;;4.70;;
3259;SDS011;68938;48.150;14.004;2023-04-03T03:57:00;6.03;;;5.63;;
3259;SDS011;68938;48.150;14.004;2023-04-03T03:59:27;4.93;;;4.53;;
3259;SDS011;68938;48.150;14.004;2023-04-03T04:01:54;21.17;;;17.53;;
3259;SDS011;68938;48.150;14.004;2023-04-03T04:04:21;8.63;;;7.77;;
3259;SDS011;68938;48.150;14.004;2023-04-03T04:06:48;6.33;;;5.80;;
3259;SDS011;68938;48.150;14.004;2023-04-03T04:09:15;5.70;;;5.27;;
3259;SDS011;68938;48.150;14.004;2023-04-03T04:11:42;6.70;;;6.20;;
3259;SDS011;68938;48.150;14.004;2023-04-03T04:14:08;5.93;;;5.53;;
3259;SDS011;68938;48.150;14.004;2023-04-03T04:16:35;5.20;;;4.90;;
3259;SDS011;68938;48.150;14.004;2023-04-03T04:19:02;6.10;;;5.63;;
3259;SDS011;68938;48.150;14.004;2023-04-03T04:21:32;5.10;;;4.80;;
3259;SDS011;68938;48.150;14.004;2023-04-03T04:23:59;7.17;;;6.57;;
3259;SDS011;68938;48.150;14.004;2023-04-03T04:26:26;6.17;;;5.73;;
3259;SDS011;68938;48.150;14.004;2023-04-03T04:28:53;5.90;;;5.30;;
3259;SDS011;68938;48.150;14.004;2023-04-03T04:31:20;6.10;;;5.50;;
3259;SDS011;68938;48.150;14.004;2023-04-03T04:33:47;6.07;;;5.70;;
3259;SDS011;68938;48.150;14.004;2023-04-03T04:36:14;5.77;;;5.37;;
3259;SDS011;68938;48.150;14.004;2023-04-03T04:38:41;6.30;;;5.80;;
3259;SDS011;68938;48.150;14.004;2023-04-03T04:41:08;6.23;;;5.63;;
3259;SDS011;68938;48.150;14.004;2023-04-03T04:43:35;5.60;;;5.20;;
3259;SDS011;68938;48.150;14.004;2023-04-03T04:46:06;5.27;;;4.97;;
3259;SDS011;68938;48.150;14.004;2023-04-03T04:48:35;6.00;;;5.40;;
3259;SDS011;68938;48.150;14.004;2023-04-03T04:51:02;5.77;;;5.40;;
3259;SDS011;68938;48.150;14.004;2023-04-03T04:53:30;5.87;;;5.40;;
3259;SDS011;68938;48.150;14.004;2023-04-03T04:55:57;6.10;;;5.50;;
3259;SDS011;68938;48.150;14.004;2023-04-03T04:58:24;6.30;;;5.80;;
3259;SDS011;68938;48.150;14.004;2023-04-03T05:01:01;5.63;;;5.13;;
3259;SDS011;68938;48.150;14.004;2023-04-03T05:03:29;6.70;;;6.10;;
3259;SDS011;68938;48.150;14.004;2023-04-03T05:05:56;6.27;;;5.70;;
3259;SDS011;68938;48.150;14.004;2023-04-03T05:08:22;6.17;;;5.57;;
3259;SDS011;68938;48.150;14.004;2023-04-03T05:10:49;6.27;;;5.50;;
3259;SDS011;68938;48.150;14.004;2023-04-03T05:13:19;6.07;;;5.67;;
3259;SDS011;68938;48.150;14.004;2023-04-03T05:15:47;5.60;;;5.20;;
3259;SDS011;68938;48.150;14.004;2023-04-03T05:18:14;6.23;;;5.83;;
3259;SDS011;68938;48.150;14.004;2023-04-03T05:20:41;6.40;;;5.50;;
3259;SDS011;68938;48.150;14.004;2023-04-03T05:23:08;6.17;;;5.73;;
3259;SDS011;68938;48.150;14.004;2023-04-03T05:25:37;6.43;;;5.93;;
3259;SDS011;68938;48.150;14.004;2023-04-03T05:28:05;6.87;;;6.27;;
3259;SDS011;68938;48.150;14.004;2023-04-03T05:30:33;6.83;;;6.20;;
3259;SDS011;68938;48.150;14.004;2023-04-03T05:33:00;6.00;;;5.50;;
3259;SDS011;68938;48.150;14.004;2023-04-03T05:35:27;6.83;;;6.23;;
3259;SDS011;68938;48.150;14.004;2023-04-03T05:37:53;9.90;;;6.77;;
3259;SDS011;68938;48.150;14.004;2023-04-03T05:40:21;5.80;;;5.40;;
3259;SDS011;68938;48.150;14.004;2023-04-03T05:42:48;8.07;;;5.77;;
3259;SDS011;68938;48.150;14.004;2023-04-03T05:45:15;7.30;;;6.60;;
3259;SDS011;68938;48.150;14.004;2023-04-03T05:47:42;6.33;;;5.83;;
3259;SDS011;68938;48.150;14.004;2023-04-03T05:50:09;5.67;;;5.37;;
3259;SDS011;68938;48.150;14.004;2023-04-03T05:52:37;8.83;;;6.40;;
3259;SDS011;68938;48.150;14.004;2023-04-03T05:55:07;6.30;;;5.80;;
3259;SDS011;68938;48.150;14.004;2023-04-03T05:57:34;7.23;;;6.57;;
3259;SDS011;68938;48.150;14.004;2023-04-03T06:00:03;5.20;;;4.77;;
3259;SDS011;68938;48.150;14.004;2023-04-03T06:02:32;6.30;;;5.90;;
3259;SDS011;68938;48.150;14.004;2023-04-03T06:04:59;6.27;;;5.37;;
3259;SDS011;68938;48.150;14.004;2023-04-03T06:07:27;6.73;;;5.93;;
3259;SDS011;68938;48.150;14.004;2023-04-03T06:09:54;6.30;;;5.70;;
3259;SDS011;68938;48.150;14.004;2023-04-03T06:12:23;8.63;;;7.83;;
3259;SDS011;68938;48.150;14.004;2023-04-03T06:14:50;5.40;;;5.10;;
3259;SDS011;68938;48.150;14.004;2023-04-03T06:17:17;6.83;;;6.13;;
3259;SDS011;68938;48.150;14.004;2023-04-03T06:19:45;4.93;;;4.63;;
3259;SDS011;68938;48.150;14.004;2023-04-03T06:22:12;5.47;;;5.17;;
3259;SDS011;68938;48.150;14.004;2023-04-03T06:24:40;7.50;;;6.13;;
3259;SDS011;68938;48.150;14.004;2023-04-03T06:27:07;7.13;;;6.07;;
3259;SDS011;68938;48.150;14.004;2023-04-03T06:29:35;6.60;;;6.03;;
3259;SDS011;68938;48.150;14.004;2023-04-03T06:32:02;6.00;;;5.50;;
3259;SDS011;68938;48.150;14.004;2023-04-03T06:34:29;35.13;;;20.13;;
3259;SDS011;68938;48.150;14.004;2023-04-03T06:36:56;9.33;;;8.20;;
3259;SDS011;68938;48.150;14.004;2023-04-03T06:39:23;7.57;;;6.80;;
3259;SDS011;68938;48.150;14.004;2023-04-03T06:41:50;7.30;;;6.60;;
3259;SDS011;68938;48.150;14.004;2023-04-03T06:44:18;8.40;;;7.60;;
3259;SDS011;68938;48.150;14.004;2023-04-03T06:46:45;7.77;;;7.17;;
3259;SDS011;68938;48.150;14.004;2023-04-03T06:49:12;6.80;;;6.23;;
3259;SDS011;68938;48.150;14.004;2023-04-03T06:51:39;6.60;;;6.20;;
3259;SDS011;68938;48.150;14.004;2023-04-03T06:54:06;9.17;;;6.60;;
3259;SDS011;68938;48.150;14.004;2023-04-03T06:56:33;10.03;;;9.13;;
3259;SDS011;68938;48.150;14.004;2023-04-03T06:59:01;6.50;;;6.00;;
3259;SDS011;68938;48.150;14.004;2023-04-03T07:01:29;6.40;;;5.90;;
3259;SDS011;68938;48.150;14.004;2023-04-03T07:03:56;7.60;;;6.10;;
3259;SDS011;68938;48.150;14.004;2023-04-03T07:06:24;6.40;;;5.83;;
3259;SDS011;68938;48.150;14.004;2023-04-03T07:08:51;4.73;;;4.47;;
3259;SDS011;68938;48.150;14.004;2023-04-03T07:11:18;5.33;;;4.93;;
3259;SDS011;68938;48.150;14.004;2023-04-03T07:13:45;12.33;;;11.27;;
3259;SDS011;68938;48.150;14.004;2023-04-03T07:16:12;16.53;;;14.80;;
3259;SDS011;68938;48.150;14.004;2023-04-03T07:18:39;13.00;;;11.83;;
3259;SDS011;68938;48.150;14.004;2023-04-03T07:21:06;7.63;;;7.13;;
3259;SDS011;68938;48.150;14.004;2023-04-03T07:23:33;4.57;;;4.30;;
3259;SDS011;68938;48.150;14.004;2023-04-03T07:26:00;4.50;;;4.20;;
3259;SDS011;68938;48.150;14.004;2023-04-03T07:28:27;3.30;;;3.20;;
3259;SDS011;68938;48.150;14.004;2023-04-03T07:30:59;2.83;;;2.73;;
3259;SDS011;68938;48.150;14.004;2023-04-03T07:33:28;3.03;;;2.90;;
3259;SDS011;68938;48.150;14.004;2023-04-03T07:35:55;2.70;;;2.60;;
3259;SDS011;68938;48.150;14.004;2023-04-03T07:38:22;4.17;;;3.40;;
3259;SDS011;68938;48.150;14.004;2023-04-03T07:40:49;2.40;;;2.30;;
3259;SDS011;68938;48.150;14.004;2023-04-03T07:43:18;2.57;;;2.37;;
3259;SDS011;68938;48.150;14.004;2023-04-03T07:45:46;6.23;;;2.93;;
3259;SDS011;68938;48.150;14.004;2023-04-03T07:48:15;3.30;;;3.20;;
3259;SDS011;68938;48.150;14.004;2023-04-03T07:50:48;3.10;;;2.80;;
3259;SDS011;68938;48.150;14.004;2023-04-03T07:53:16;3.23;;;3.03;;
3259;SDS011;68938;48.150;14.004;2023-04-03T07:55:45;3.10;;;3.00;;
3259;SDS011;68938;48.150;14.004;2023-04-03T07:58:16;3.83;;;3.60;;
3259;SDS011;68938;48.150;14.004;2023-04-03T08:00:45;3.53;;;2.97;;
3259;SDS011;68938;48.150;14.004;2023-04-03T08:03:12;3.27;;;3.07;;
3259;SDS011;68938;48.150;14.004;2023-04-03T08:05:41;3.30;;;3.03;;
3259;SDS011;68938;48.150;14.004;2023-04-03T08:08:12;4.30;;;3.90;;
3259;SDS011;68938;48.150;14.004;2023-04-03T08:10:48;3.97;;;3.67;;
3259;SDS011;68938;48.150;14.004;2023-04-03T08:13:17;3.67;;;3.47;;
3259;SDS011;68938;48.150;14.004;2023-04-03T08:15:46;4.10;;;3.70;;
3259;SDS011;68938;48.150;14.004;2023-04-03T08:18:14;4.50;;;3.63;;
3259;SDS011;68938;48.150;14.004;2023-04-03T08:20:41;3.50;;;3.30;;
3259;SDS011;68938;48.150;14.004;2023-04-03T08:23:09;3.60;;;3.30;;
3259;SDS011;68938;48.150;14.004;2023-04-03T08:25:40;4.70;;;3.53;;
3259;SDS011;68938;48.150;14.004;2023-04-03T08:28:08;3.87;;;3.63;;
3259;SDS011;68938;48.150;14.004;2023-04-03T08:30:40;4.67;;;4.13;;
3259;SDS011;68938;48.150;14.004;2023-04-03T08:33:09;4.00;;;3.70;;
3259;SDS011;68938;48.150;14.004;2023-04-03T08:35:40;4.37;;;4.10;;
3259;SDS011;68938;48.150;14.004;2023-04-03T08:38:09;4.63;;;4.17;;
3259;SDS011;68938;48.150;14.004;2023-04-03T08:40:37;5.03;;;4.63;;
3259;SDS011;68938;48.150;14.004;2023-04-03T08:46:13;4.43;;;4.23;;
3259;SDS011;68938;48.150;14.004;2023-04-03T08:48:41;4.23;;;3.90;;
3259;SDS011;68938;48.150;14.004;2023-04-03T08:51:14;5.73;;;5.23;;
3259;SDS011;68938;48.150;14.004;2023-04-03T08:56:26;6.00;;;4.97;;
3259;SDS011;68938;48.150;14.004;2023-04-03T08:58:58;9.93;;;5.13;;
3259;SDS011;68938;48.150;14.004;2023-04-03T09:01:35;5.20;;;4.90;;
3259;SDS011;68938;48.150;14.004;2023-04-03T09:04:12;5.50;;;5.03;;
3259;SDS011;68938;48.150;14.004;2023-04-03T09:06:54;5.73;;;5.30;;
3259;SDS011;68938;48.150;14.004;2023-04-03T09:09:35;6.03;;;5.53;;
3259;SDS011;68938;48.150;14.004;2023-04-03T09:23:42;5.10;;;4.80;;
3259;SDS011;68938;48.150;14.004;2023-04-03T09:26:21;6.33;;;5.83;;
3259;SDS011;68938;48.150;14.004;2023-04-03T09:28:56;5.60;;;5.10;;
3259;SDS011;68938;48.150;14.004;2023-04-03T09:31:38;5.80;;;5.40;;
3259;SDS011;68938;48.150;14.004;2023-04-03T09:34:20;6.13;;;5.63;;
3259;SDS011;68938;48.150;14.004;2023-04-03T09:36:56;7.93;;;5.77;;
3259;SDS011;68938;48.150;14.004;2023-04-03T09:39:28;6.07;;;5.67;;
3259;SDS011;68938;48.150;14.004;2023-04-03T09:44:34;5.90;;;5.40;;
3259;SDS011;68938;48.150;14.004;2023-04-03T09:47:19;5.47;;;4.87;;
3259;SDS011;68938;48.150;14.004;2023-04-03T09:49:49;6.63;;;4.93;;
3259;SDS011;68938;48.150;14.004;2023-04-03T09:52:22;5.13;;;4.77;;
3259;SDS011;68938;48.150;14.004;2023-04-03T09:54:52;4.90;;;4.60;;
3259;SDS011;68938;48.150;14.004;2023-04-03T09:57:19;4.50;;;4.20;;
3259;SDS011;68938;48.150;14.004;2023-04-03T09:59:47;6.17;;;5.60;;
3259;SDS011;68938;48.150;14.004;2023-04-03T10:07:59;6.17;;;5.63;;
3259;SDS011;68938;48.150;14.004;2023-04-03T10:10:36;3.50;;;3.20;;
3259;SDS011;68938;48.150;14.004;2023-04-03T10:13:05;3.00;;;2.80;;
3259;SDS011;68938;48.150;14.004;2023-04-03T10:15:56;2.40;;;2.30;;
3259;SDS011;68938;48.150;14.004;2023-04-03T10:21:24;3.43;;;3.23;;
3259;SDS011;68938;48.150;14.004;2023-04-03T10:24:11;2.53;;;2.33;;
3259;SDS011;68938;48.150;14.004;2023-04-03T10:27:11;3.20;;;2.97;;
3259;SDS011;68938;48.150;14.004;2023-04-03T10:38:50;3.30;;;2.97;;
3259;SDS011;68938;48.150;14.004;2023-04-03T11:01:51;4.23;;;2.23;;
3259;SDS011;68938;48.150;14.004;2023-04-03T11:04:24;4.67;;;2.20;;
3259;SDS011;68938;48.150;14.004;2023-04-03T11:07:00;2.40;;;2.20;;
3259;SDS011;68938;48.150;14.004;2023-04-03T11:10:04;2.30;;;2.03;;
3259;SDS011;68938;48.150;14.004;2023-04-03T11:12:42;2.30;;;2.10;;
3259;SDS011;68938;48.150;14.004;2023-04-03T11:15:15;3.87;;;3.67;;
3259;SDS011;68938;48.150;14.004;2023-04-03T11:17:52;2.53;;;2.33;;
3259;SDS011;68938;48.150;14.004;2023-04-03T11:20:31;2.37;;;2.07;;
3259;SDS011;68938;48.150;14.004;2023-04-03T11:23:13;2.10;;;2.00;;
3259;SDS011;68938;48.150;14.004;2023-04-03T11:25:49;2.67;;;2.53;;
3259;SDS011;68938;48.150;14.004;2023-04-03T11:28:21;2.30;;;2.17;;
3259;SDS011;68938;48.150;14.004;2023-04-03T11:36:33;1.97;;;1.97;;
3259;SDS011;68938;48.150;14.004;2023-04-03T11:41:50;2.73;;;2.23;;
3259;SDS011;68938;48.150;14.004;2023-04-03T11:44:33;2.73;;;2.63;;
3259;SDS011;68938;48.150;14.004;2023-04-03T11:47:03;2.77;;;2.57;;
3259;SDS011;68938;48.150;14.004;2023-04-03T11:50:06;2.20;;;2.10;;
3259;SDS011;68938;48.150;14.004;2023-04-03T11:55:41;2.30;;;2.10;;
3259;SDS011;68938;48.150;14.004;2023-04-03T11:58:15;3.60;;;3.30;;
3259;SDS011;68938;48.150;14.004;2023-04-03T12:16:25;2.90;;;2.70;;
3259;SDS011;68938;48.150;14.004;2023-04-03T12:19:33;2.73;;;2.63;;
3259;SDS011;68938;48.150;14.004;2023-04-03T12:22:15;3.67;;;2.93;;
3259;SDS011;68938;48.150;14.004;2023-04-03T12:24:46;4.60;;;3.90;;
3259;SDS011;68938;48.150;14.004;2023-04-03T12:27:23;3.03;;;2.73;;
3259;SDS011;68938;48.150;14.004;2023-04-03T12:30:04;3.67;;;3.27;;
3259;SDS011;68938;48.150;14.004;2023-04-03T12:47:21;4.23;;;3.77;;
3259;SDS011;68938;48.150;14.004;2023-04-03T12:49:53;3.30;;;3.10;;
3259;SDS011;68938;48.150;14.004;2023-04-03T12:52:38;3.47;;;3.23;;
3259;SDS011;68938;48.150;14.004;2023-04-03T12:55:30;4.17;;;3.70;;
3259;SDS011;68938;48.150;14.004;2023-04-03T12:58:12;3.77;;;3.57;;
3259;SDS011;68938;48.150;14.004;2023-04-03T13:01:04;3.50;;;3.20;;
3259;SDS011;68938;48.150;14.004;2023-04-03T13:03:39;3.90;;;2.90;;
3259;SDS011;68938;48.150;14.004;2023-04-03T13:06:10;5.93;;;2.67;;
3259;SDS011;68938;48.150;14.004;2023-04-03T13:08:58;2.87;;;2.77;;
3259;SDS011;68938;48.150;14.004;2023-04-03T13:11:28;3.13;;;3.03;;
3259;SDS011;68938;48.150;14.004;2023-04-03T13:14:03;3.23;;;3.03;;
3259;SDS011;68938;48.150;14.004;2023-04-03T13:16:42;4.33;;;2.80;;
3259;SDS011;68938;48.150;14.004;2023-04-03T13:19:25;3.90;;;3.60;;
3259;SDS011;68938;48.150;14.004;2023-04-03T13:22:05;3.07;;;2.93;;
3259;SDS011;68938;48.150;14.004;2023-04-03T13:24:56;3.67;;;3.43;;
3259;SDS011;68938;48.150;14.004;2023-04-03T13:27:30;3.10;;;3.00;;
3259;SDS011;68938;48.150;14.004;2023-04-03T13:30:00;3.63;;;3.43;;
3259;SDS011;68938;48.150;14.004;2023-04-03T13:32:30;3.40;;;3.20;;
3259;SDS011;68938;48.150;14.004;2023-04-03T13:34:58;3.37;;;3.20;;
3259;SDS011;68938;48.150;14.004;2023-04-03T13:37:53;3.57;;;2.60;;
3259;SDS011;68938;48.150;14.004;2023-04-03T13:40:27;3.23;;;3.03;;
3259;SDS011;68938;48.150;14.004;2023-04-03T13:43:15;3.30;;;3.10;;
3259;SDS011;68938;48.150;14.004;2023-04-03T13:45:59;3.50;;;2.70;;
3259;SDS011;68938;48.150;14.004;2023-04-03T13:48:52;3.30;;;3.07;;
3259;SDS011;68938;48.150;14.004;2023-04-03T13:51:28;4.43;;;2.90;;
3259;SDS011;68938;48.150;14.004;2023-04-03T13:53:57;3.50;;;3.23;;
3259;SDS011;68938;48.150;14.004;2023-04-03T14:01:41;3.03;;;2.90;;
3259;SDS011;68938;48.150;14.004;2023-04-03T14:04:30;5.20;;;3.30;;
3259;SDS011;68938;48.150;14.004;2023-04-03T14:07:20;3.13;;;2.90;;
3259;SDS011;68938;48.150;14.004;2023-04-03T14:09:47;3.20;;;3.00;;
3259;SDS011;68938;48.150;14.004;2023-04-03T14:12:16;6.10;;;3.57;;
3259;SDS011;68938;48.150;14.004;2023-04-03T14:14:57;5.33;;;3.50;;
3259;SDS011;68938;48.150;14.004;2023-04-03T14:17:34;3.97;;;3.63;;
3259;SDS011;68938;48.150;14.004;2023-04-03T14:20:01;4.40;;;4.00;;
3259;SDS011;68938;48.150;14.004;2023-04-03T14:22:30;3.73;;;3.53;;
3259;SDS011;68938;48.150;14.004;2023-04-03T14:24:59;3.30;;;3.10;;
3259;SDS011;68938;48.150;14.004;2023-04-03T14:27:34;3.07;;;2.87;;
3259;SDS011;68938;48.150;14.004;2023-04-03T14:30:06;5.57;;;3.30;;
3259;SDS011;68938;48.150;14.004;2023-04-03T14:32:58;4.50;;;3.70;;
3259;SDS011;68938;48.150;14.004;2023-04-03T14:35:27;4.90;;;3.07;;
3259;SDS011;68938;48.150;14.004;2023-04-03T14:37:54;3.00;;;2.80;;
3259;SDS011;68938;48.150;14.004;2023-04-03T14:40:23;2.60;;;2.40;;
3259;SDS011;68938;48.150;14.004;2023-04-03T14:42:53;2.47;;;2.37;;
3259;SDS011;68938;48.150;14.004;2023-04-03T14:45:21;3.43;;;3.23;;
3259;SDS011;68938;48.150;14.004;2023-04-03T14:47:50;3.30;;;3.07;;
3259;SDS011;68938;48.150;14.004;2023-04-03T14:50:22;2.90;;;2.70;;
3259;SDS011;68938;48.150;14.004;2023-04-03T14:52:53;3.47;;;3.17;;
3259;SDS011;68938;48.150;14.004;2023-04-03T14:55:24;7.47;;;3.63;;
3259;SDS011;68938;48.150;14.004;2023-04-03T14:57:52;3.03;;;2.83;;
3259;SDS011;68938;48.150;14.004;2023-04-03T15:00:21;3.27;;;2.90;;
3259;SDS011;68938;48.150;14.004;2023-04-03T15:02:49;3.70;;;3.50;;
3259;SDS011;68938;48.150;14.004;2023-04-03T15:05:17;5.97;;;3.67;;
3259;SDS011;68938;48.150;14.004;2023-04-03T15:07:47;5.63;;;4.23;;
3259;SDS011;68938;48.150;14.004;2023-04-03T15:10:26;4.00;;;3.70;;
3259;SDS011;68938;48.150;14.004;2023-04-03T15:12:55;5.70;;;3.50;;
3259;SDS011;68938;48.150;14.004;2023-04-03T15:15:23;3.60;;;3.10;;
3259;SDS011;68938;48.150;14.004;2023-04-03T15:17:54;3.67;;;3.43;;
3259;SDS011;68938;48.150;14.004;2023-04-03T15:20:23;4.07;;;3.87;;
3259;SDS011;68938;48.150;14.004;2023-04-03T15:22:52;4.97;;;3.80;;
3259;SDS011;68938;48.150;14.004;2023-04-03T15:25:20;4.13;;;3.90;;
3259;SDS011;68938;48.150;14.004;2023-04-03T15:27:47;3.70;;;3.40;;
3259;SDS011;68938;48.150;14.004;2023-04-03T15:30:15;3.67;;;3.47;;
3259;SDS011;68938;48.150;14.004;2023-04-03T15:32:45;3.40;;;3.20;;
3259;SDS011;68938;48.150;14.004;2023-04-03T15:35:13;8.20;;;4.10;;
3259;SDS011;68938;48.150;14.004;2023-04-03T15:37:40;8.60;;;4.33;;
3259;SDS011;68938;48.150;14.004;2023-04-03T15:40:08;3.87;;;3.57;;
3259;SDS011;68938;48.150;14.004;2023-04-03T15:42:36;3.50;;;3.20;;
3259;SDS011;68938;48.150;14.004;2023-04-03T15:45:04;6.83;;;3.37;;
3259;SDS011;68938;48.150;14.004;2023-04-03T15:47:32;5.67;;;3.90;;
3259;SDS011;68938;48.150;14.004;2023-04-03T15:49:59;3.33;;;3.13;;
3259;SDS011;68938;48.150;14.004;2023-04-03T15:52:27;3.70;;;3.50;;
3259;SDS011;68938;48.150;14.004;2023-04-03T15:54:53;4.43;;;4.13;;
3259;SDS011;68938;48.150;14.004;2023-04-03T15:57:20;3.73;;;3.47;;
3259;SDS011;68938;48.150;14.004;2023-04-03T15:59:47;3.37;;;3.10;;
3259;SDS011;68938;48.150;14.004;2023-04-03T16:02:14;3.60;;;3.30;;
3259;SDS011;68938;48.150;14.004;2023-04-03T16:04:41;4.23;;;3.80;;
3259;SDS011;68938;48.150;14.004;2023-04-03T16:07:08;4.00;;;3.70;;
3259;SDS011;68938;48.150;14.004;2023-04-03T16:09:35;3.50;;;3.23;;
3259;SDS011;68938;48.150;14.004;2023-04-03T16:12:03;4.20;;;3.80;;
3259;SDS011;68938;48.150;14.004;2023-04-03T16:14:30;7.63;;;5.63;;
3259;SDS011;68938;48.150;14.004;2023-04-03T16:16:57;6.27;;;3.30;;
3259;SDS011;68938;48.150;14.004;2023-04-03T16:19:26;6.23;;;4.37;;
3259;SDS011;68938;48.150;14.004;2023-04-03T16:21:53;5.03;;;4.17;;
3259;SDS011;68938;48.150;14.004;2023-04-03T16:24:21;4.57;;;3.83;;
3259;SDS011;68938;48.150;14.004;2023-04-03T16:26:48;4.80;;;4.20;;
3259;SDS011;68938;48.150;14.004;2023-04-03T16:29:15;4.10;;;3.80;;
3259;SDS011;68938;48.150;14.004;2023-04-03T16:31:42;3.97;;;3.63;;
3259;SDS011;68938;48.150;14.004;2023-04-03T16:34:09;4.63;;;4.30;;
3259;SDS011;68938;48.150;14.004;2023-04-03T16:36:36;3.90;;;3.60;;
3259;SDS011;68938;48.150;14.004;2023-04-03T16:39:03;4.67;;;4.20;;
3259;SDS011;68938;48.150;14.004;2023-04-03T16:41:30;4.77;;;4.37;;
3259;SDS011;68938;48.150;14.004;2023-04-03T16:43:57;4.40;;;4.00;;
3259;SDS011;68938;48.150;14.004;2023-04-03T16:46:24;4.63;;;4.33;;
3259;SDS011;68938;48.150;14.004;2023-04-03T16:48:51;4.10;;;3.90;;
3259;SDS011;68938;48.150;14.004;2023-04-03T16:51:18;3.83;;;3.53;;
3259;SDS011;68938;48.150;14.004;2023-04-03T16:53:45;4.60;;;4.23;;
3259;SDS011;68938;48.150;14.004;2023-04-03T16:56:12;4.33;;;4.07;;
3259;SDS011;68938;48.150;14.004;2023-04-03T16:58:38;4.67;;;4.20;;